TimeEET,TemperatureF,Dew PointF,Humidity,Sea Level PressureIn,VisibilityMPH,Wind Direction,Wind SpeedMPH,Gust SpeedMPH,PrecipitationIn,Events,Conditions,WindDirDegrees,DateUTC
12:00 AM,60.8,55.4,82,30.06,6.2,North,4.6,-,N/A,,Scattered Clouds,350,2012-11-25 22:00:00
1:00 AM,59.0,55.4,88,30.06,6.2,South,5.8,-,N/A,,Scattered Clouds,180,2012-11-25 23:00:00
2:00 AM,58,55,87,30.07,6,South,4.6,,,,Partly Cloudy,180,2012-11-26 00:00:00
2:00 AM,59.0,55.4,88,30.06,6.2,South,4.6,-,N/A,,Scattered Clouds,180,2012-11-26 00:00:00
3:00 AM,57.2,53.6,88,30.06,6.2,SSW,4.6,-,N/A,,Scattered Clouds,210,2012-11-26 01:00:00
4:00 AM,60.8,59.0,94,30.04,6.2,WSW,5.8,-,N/A,,Scattered Clouds,240,2012-11-26 02:00:00
5:00 AM,57.2,55.4,94,30.06,6.2,South,5.8,-,N/A,,Scattered Clouds,180,2012-11-26 03:00:00
6:00 AM,57.2,55.4,94,30.06,6.2,South,5.8,-,N/A,,Scattered Clouds,180,2012-11-26 04:00:00
7:00 AM,59.0,57.2,94,30.06,6.2,South,4.6,-,N/A,,Scattered Clouds,180,2012-11-26 05:00:00
8:00 AM,61,57,84,30.09,6,South,5.8,,,,Partly Cloudy,180,2012-11-26 06:00:00
8:00 AM,60.8,57.2,88,30.09,6.2,South,5.8,-,N/A,,Scattered Clouds,180,2012-11-26 06:00:00
9:00 AM,66.2,57.2,73,30.09,6.2,South,5.8,-,N/A,,Scattered Clouds,190,2012-11-26 07:00:00
10:00 AM,69.8,57.2,64,30.09,6.2,SSW,3.5,-,N/A,,Scattered Clouds,200,2012-11-26 08:00:00
11:00 AM,73.4,57.2,57,30.09,6.2,SSW,6.9,-,N/A,,Scattered Clouds,200,2012-11-26 09:00:00
12:00 PM,73.4,57.2,57,30.06,6.2,NNW,5.8,-,N/A,,Scattered Clouds,330,2012-11-26 10:00:00
1:00 PM,71.6,55.4,57,30.06,6.2,NW,9.2,-,N/A,,Scattered Clouds,310,2012-11-26 11:00:00
2:00 PM,73,56,46,30.06,6,NW,11.5,,,,Mostly Cloudy,320,2012-11-26 12:00:00
2:00 PM,73.4,57.2,57,30.06,6.2,NW,11.5,-,N/A,,Scattered Clouds,320,2012-11-26 12:00:00
3:00 PM,71.6,57.2,60,30.04,6.2,NW,10.4,-,N/A,,Scattered Clouds,320,2012-11-26 13:00:00
4:00 PM,69.8,55.4,60,30.04,6.2,NW,9.2,-,N/A,,Scattered Clouds,320,2012-11-26 14:00:00
5:00 PM,68.0,55.4,64,30.06,6.2,NW,6.9,-,N/A,,Scattered Clouds,320,2012-11-26 15:00:00
6:00 PM,68.0,57.2,68,30.06,6.2,NW,5.8,-,N/A,,Scattered Clouds,320,2012-11-26 16:00:00
7:00 PM,68.0,57.2,68,30.09,6.2,North,3.5,-,N/A,,Scattered Clouds,350,2012-11-26 17:00:00
8:00 PM,67,57,62,30.11,6,North,4.6,,,,Partly Cloudy,0,2012-11-26 18:00:00
8:00 PM,66.2,57.2,73,30.09,6.2,North,4.6,-,N/A,,Scattered Clouds,360,2012-11-26 18:00:00
9:00 PM,66.2,55.4,68,30.09,-9999.0,NW,4.6,-,N/A,,Clear,320,2012-11-26 19:00:00
10:00 PM,64.4,55.4,73,30.09,-9999.0,North,2.3,-,N/A,,Clear,350,2012-11-26 20:00:00
11:00 PM,62.6,55.4,77,30.06,-9999.0,North,8.1,-,N/A,,Clear,360,2012-11-26 21:00:00